createdAt,value
2022-08-26T00:01:55.856Z,70.98
2022-08-26T00:04:25.223Z,71.25
2022-08-26T00:06:54.115Z,71.17
2022-08-26T00:09:21.746Z,71.09
2022-08-26T00:11:49.233Z,71.37
2022-08-26T00:14:18.565Z,71.25
2022-08-26T00:16:47.920Z,70.98
2022-08-26T00:19:34.758Z,71.04
2022-08-26T00:22:02.530Z,71.23
2022-08-26T00:24:29.987Z,71.15
2022-08-26T00:27:01.443Z,71.17
2022-08-26T00:29:30.410Z,71.38
2022-08-26T00:32:02.828Z,70.86
2022-08-26T00:34:31.556Z,71.23
2022-08-26T00:36:58.975Z,70.65
2022-08-26T00:39:26.820Z,70.60
2022-08-26T00:41:55.550Z,70.98
2022-08-26T00:44:23.064Z,70.95
2022-08-26T00:46:53.429Z,70.75
2022-08-26T00:49:31.278Z,70.88
2022-08-26T00:51:59.041Z,70.63
2022-08-26T00:54:27.556Z,71.11
2022-08-26T00:57:00.764Z,70.69
2022-08-26T00:59:29.305Z,71.03
2022-08-26T01:02:02.812Z,70.48
2022-08-26T01:04:30.815Z,70.57
2022-08-26T01:06:58.608Z,70.30
2022-08-26T01:09:26.070Z,70.64
2022-08-26T01:11:55.574Z,70.42
2022-08-26T01:14:23.069Z,70.38
2022-08-26T01:16:51.147Z,70.60
2022-08-26T01:19:43.523Z,70.33
2022-08-26T01:22:28.208Z,70.33
2022-08-26T01:24:58.763Z,70.42
2022-08-26T01:27:32.522Z,70.20
2022-08-26T01:30:00.443Z,70.13
2022-08-26T01:32:28.555Z,70.54
2022-08-26T01:34:58.613Z,70.02
2022-08-26T01:37:32.894Z,70.35
2022-08-26T01:40:01.557Z,70.25
2022-08-26T01:42:29.907Z,70.28
2022-08-26T01:45:05.031Z,70.64
2022-08-26T01:47:32.444Z,69.99
2022-08-26T01:50:01.289Z,70.22
2022-08-26T01:52:30.450Z,70.10
2022-08-26T01:54:58.428Z,70.10
2022-08-26T01:57:26.343Z,70.47
2022-08-26T01:59:55.674Z,70.43
2022-08-26T02:02:28.868Z,70.36
2022-08-26T02:05:01.898Z,70.38
2022-08-26T02:07:29.318Z,70.33
2022-08-26T02:09:56.927Z,70.04
2022-08-26T02:12:24.652Z,70.29
2022-08-26T02:14:54.775Z,70.13
2022-08-26T02:17:26.538Z,70.20
2022-08-26T02:19:53.962Z,70.13
2022-08-26T02:22:22.899Z,70.14
2022-08-26T02:24:57.183Z,69.79
2022-08-26T02:27:32.803Z,69.87
2022-08-26T02:30:12.859Z,69.90
2022-08-26T02:32:41.375Z,70.19
2022-08-26T02:35:09.881Z,70.25
2022-08-26T02:37:37.357Z,69.93
2022-08-26T02:40:06.552Z,70.14
2022-08-26T02:42:34.093Z,70.11
2022-08-26T02:45:01.532Z,70.11
2022-08-26T02:47:30.150Z,70.35
2022-08-26T02:49:59.869Z,69.82
2022-08-26T02:52:27.295Z,69.99
2022-08-26T02:54:55.684Z,70.40
2022-08-26T02:57:25.038Z,70.12
2022-08-26T02:59:52.448Z,70.29
2022-08-26T03:02:19.985Z,70.10
2022-08-26T03:04:58.134Z,70.02
2022-08-26T03:07:31.027Z,70.28
2022-08-26T03:09:59.972Z,70.09
2022-08-26T03:12:27.386Z,70.12
2022-08-26T03:14:55.135Z,70.11
2022-08-26T03:17:22.570Z,70.59
2022-08-26T03:19:56.979Z,70.45
2022-08-26T03:22:25.663Z,70.05
2022-08-26T03:24:54.614Z,70.17
2022-08-26T03:27:25.005Z,70.50
2022-08-26T03:30:11.988Z,70.48
2022-08-26T03:32:44.196Z,70.28
2022-08-26T03:35:12.462Z,70.20
2022-08-26T03:37:39.960Z,70.57
2022-08-26T03:40:09.965Z,70.35
2022-08-26T03:42:39.283Z,70.52
2022-08-26T03:45:11.925Z,70.54
2022-08-26T03:47:39.600Z,70.20
2022-08-26T03:50:07.954Z,70.07
2022-08-26T03:52:35.707Z,70.28
2022-08-26T03:55:06.990Z,70.62
2022-08-26T03:57:34.485Z,70.15
2022-08-26T04:00:02.204Z,70.72
2022-08-26T04:02:35.999Z,70.38
2022-08-26T04:05:03.703Z,70.09
2022-08-26T04:07:32.054Z,70.62
2022-08-26T04:10:00.592Z,70.44
2022-08-26T04:12:28.036Z,70.64
2022-08-26T04:14:55.541Z,70.51
2022-08-26T04:17:26.234Z,70.42
2022-08-26T04:19:56.374Z,70.64
2022-08-26T04:22:25.071Z,70.33
2022-08-26T04:24:52.871Z,70.56
2022-08-26T04:27:23.620Z,70.55
2022-08-26T04:29:55.359Z,70.26
2022-08-26T04:32:23.059Z,70.68
2022-08-26T04:34:50.520Z,70.48
2022-08-26T04:37:18.574Z,70.72
2022-08-26T04:39:46.044Z,70.27
2022-08-26T04:42:13.894Z,70.38
2022-08-26T04:44:43.945Z,70.55
2022-08-26T04:47:11.383Z,70.40
2022-08-26T04:49:38.889Z,70.63
2022-08-26T04:52:06.360Z,70.56
2022-08-26T04:54:35.257Z,70.19
2022-08-26T04:57:02.793Z,70.14
2022-08-26T04:59:30.313Z,70.26
2022-08-26T05:01:59.680Z,70.65
2022-08-26T05:04:27.244Z,70.38
2022-08-26T05:06:59.237Z,70.24
2022-08-26T05:09:30.441Z,70.02
2022-08-26T05:11:57.990Z,70.43
2022-08-26T05:14:25.474Z,70.51
2022-08-26T05:16:53.957Z,70.31
2022-08-26T05:19:21.398Z,70.24
2022-08-26T05:21:49.323Z,70.01
2022-08-26T05:24:17.813Z,70.19
2022-08-26T05:26:46.770Z,70.20
2022-08-26T05:29:14.212Z,70.68
2022-08-26T05:31:42.987Z,70.60
2022-08-26T05:34:10.486Z,70.67
2022-08-26T05:36:38.868Z,70.71
2022-08-26T05:39:06.727Z,70.22
2022-08-26T05:41:36.601Z,70.33
2022-08-26T05:44:09.358Z,70.27
2022-08-26T05:46:37.099Z,70.21
2022-08-26T05:49:06.247Z,70.63
2022-08-26T05:51:41.516Z,70.42
2022-08-26T05:54:10.440Z,70.41
2022-08-26T05:56:38.784Z,70.63
2022-08-26T05:59:14.201Z,70.44
2022-08-26T06:01:43.575Z,70.86
2022-08-26T06:04:12.684Z,70.82
2022-08-26T06:06:41.654Z,70.65
2022-08-26T06:09:11.177Z,70.94
2022-08-26T06:11:39.226Z,70.72
2022-08-26T06:14:10.373Z,71.01
2022-08-26T06:16:40.914Z,70.78
2022-08-26T06:19:10.794Z,70.84
2022-08-26T06:21:40.169Z,70.95
2022-08-26T06:24:28.148Z,71.02
2022-08-26T06:26:57.093Z,71.39
2022-08-26T06:29:25.898Z,71.04
2022-08-26T06:31:56.475Z,71.35
2022-08-26T06:34:26.607Z,70.93
2022-08-26T06:36:58.655Z,71.36
2022-08-26T06:39:26.196Z,71.44
2022-08-26T06:41:54.157Z,71.47
2022-08-26T06:44:25.843Z,71.10
2022-08-26T06:46:53.558Z,71.45
2022-08-26T06:49:26.827Z,71.58
2022-08-26T06:51:59.110Z,71.38
2022-08-26T06:54:31.544Z,71.65
2022-08-26T06:56:59.164Z,71.38
2022-08-26T06:59:26.561Z,71.62
2022-08-26T07:01:54.794Z,71.43
2022-08-26T07:04:23.226Z,71.38
2022-08-26T07:06:52.640Z,71.71
2022-08-26T07:09:24.888Z,71.63
2022-08-26T07:11:56.120Z,71.78
2022-08-26T07:14:25.317Z,71.64
2022-08-26T07:16:54.052Z,71.43
2022-08-26T07:19:29.845Z,71.80
2022-08-26T07:22:02.098Z,71.44
2022-08-26T07:24:35.701Z,71.98
2022-08-26T07:27:06.582Z,72.03
2022-08-26T07:29:34.807Z,71.97
2022-08-26T07:32:03.548Z,71.78
2022-08-26T07:34:34.228Z,71.96
2022-08-26T07:37:02.113Z,72.12
2022-08-26T07:39:31.430Z,71.79
2022-08-26T07:42:07.387Z,71.89
2022-08-26T07:44:36.831Z,71.88
2022-08-26T07:47:10.247Z,72.17
2022-08-26T07:49:52.901Z,71.94
2022-08-26T07:52:26.230Z,72.32
2022-08-26T07:54:58.181Z,72.23
2022-08-26T07:57:26.609Z,72.09
2022-08-26T07:59:55.240Z,72.05
2022-08-26T08:02:23.308Z,72.14
2022-08-26T08:04:51.774Z,72.25
2022-08-26T08:07:19.494Z,72.16
2022-08-26T08:09:49.581Z,72.52
2022-08-26T08:12:17.951Z,72.48
2022-08-26T08:14:46.882Z,72.44
2022-08-26T08:17:16.173Z,72.64
2022-08-26T08:19:43.698Z,72.16
2022-08-26T08:22:17.401Z,72.49
2022-08-26T08:24:45.455Z,72.53
2022-08-26T08:27:22.862Z,72.34
2022-08-26T08:29:54.270Z,72.26
2022-08-26T08:32:23.034Z,72.28
2022-08-26T08:34:50.478Z,72.48
2022-08-26T08:37:17.938Z,72.13
2022-08-26T08:39:45.746Z,72.46
2022-08-26T08:42:31.826Z,72.51
2022-08-26T08:45:01.666Z,72.32
2022-08-26T08:47:47.438Z,72.80
2022-08-26T08:50:23.396Z,72.53
2022-08-26T08:53:31.781Z,72.29
2022-08-26T08:56:11.549Z,72.48
2022-08-26T09:01:52.469Z,72.57
2022-08-26T09:04:33.318Z,72.29
2022-08-26T09:07:02.245Z,72.39
2022-08-26T09:09:50.175Z,72.39
2022-08-26T09:12:20.808Z,72.34
2022-08-26T09:15:18.928Z,72.74
2022-08-26T09:18:23.567Z,72.31
2022-08-26T09:21:05.259Z,72.64
2022-08-26T09:23:36.268Z,72.71
2022-08-26T09:26:22.038Z,72.80
2022-08-26T09:29:03.006Z,72.32
2022-08-26T09:31:37.274Z,72.71
2022-08-26T09:34:07.439Z,72.62
2022-08-26T09:36:41.355Z,72.55
2022-08-26T09:39:24.225Z,72.48
2022-08-26T09:42:05.142Z,72.54
2022-08-26T09:44:32.860Z,72.30
2022-08-26T09:47:03.321Z,72.79
2022-08-26T09:49:41.153Z,72.80
2022-08-26T09:52:23.477Z,72.34
2022-08-26T09:55:21.489Z,72.42
2022-08-26T09:57:54.046Z,72.63
2022-08-26T10:00:30.828Z,72.29
2022-08-26T10:03:03.588Z,72.69
2022-08-26T10:05:34.535Z,72.50
2022-08-26T10:08:20.080Z,72.75
2022-08-26T10:10:53.328Z,72.48
2022-08-26T10:13:31.482Z,72.36
2022-08-26T10:16:16.300Z,72.49
2022-08-26T10:19:07.680Z,72.40
2022-08-26T10:21:54.106Z,72.34
2022-08-26T10:24:36.648Z,72.28
2022-08-26T10:27:25.921Z,72.55
2022-08-26T10:29:55.521Z,72.20
2022-08-26T10:32:24.953Z,72.44
2022-08-26T10:34:54.020Z,72.28
2022-08-26T10:37:22.777Z,72.34
2022-08-26T10:40:02.853Z,72.59
2022-08-26T10:42:49.328Z,72.34
2022-08-26T10:45:22.253Z,72.48
2022-08-26T10:48:16.925Z,72.37
2022-08-26T10:50:47.665Z,72.51
2022-08-26T10:53:24.917Z,72.59
2022-08-26T10:56:05.433Z,72.77
2022-08-26T10:58:53.531Z,72.85
2022-08-26T11:01:46.890Z,72.32
2022-08-26T11:04:35.101Z,72.66
2022-08-26T11:07:39.221Z,72.68
2022-08-26T11:10:22.528Z,72.61
2022-08-26T11:13:02.231Z,72.45
2022-08-26T11:15:29.613Z,72.33
2022-08-26T11:18:01.298Z,72.51
2022-08-26T11:20:41.968Z,72.73
2022-08-26T11:23:12.387Z,72.53
2022-08-26T11:25:58.956Z,72.77
2022-08-26T11:28:45.974Z,72.66
2022-08-26T11:31:26.769Z,72.41
2022-08-26T11:33:57.040Z,72.29
2022-08-26T11:36:33.582Z,72.59
2022-08-26T11:39:02.819Z,72.78
2022-08-26T11:41:34.200Z,72.85
2022-08-26T11:44:07.092Z,72.59
2022-08-26T11:46:37.636Z,72.77
2022-08-26T11:49:06.422Z,72.70
2022-08-26T11:51:38.219Z,72.35
2022-08-26T11:54:15.151Z,72.58
2022-08-26T11:56:45.124Z,72.78
2022-08-26T11:59:15.616Z,72.54
2022-08-26T12:01:44.235Z,72.56
2022-08-26T12:04:13.924Z,72.38
2022-08-26T12:06:49.132Z,72.78
2022-08-26T12:09:36.467Z,72.67
2022-08-26T12:12:17.127Z,72.62
2022-08-26T12:14:47.679Z,72.48
2022-08-26T12:17:17.149Z,72.19
2022-08-26T12:19:46.727Z,72.48
2022-08-26T12:22:17.188Z,72.79
2022-08-26T12:25:01.562Z,72.28
2022-08-26T12:27:43.692Z,72.74
2022-08-26T12:30:21.358Z,72.36
2022-08-26T12:32:58.202Z,72.82
2022-08-26T12:35:28.900Z,72.47
2022-08-26T12:37:57.632Z,72.90
2022-08-26T12:40:30.868Z,72.66
2022-08-26T12:43:00.475Z,72.57
2022-08-26T12:45:34.962Z,72.95
2022-08-26T12:48:11.080Z,72.54
2022-08-26T12:50:40.186Z,72.77
2022-08-26T12:53:10.577Z,72.92
2022-08-26T12:55:39.178Z,72.88
2022-08-26T12:58:15.782Z,72.96
2022-08-26T13:00:48.208Z,72.95
2022-08-26T13:03:33.991Z,72.62
2022-08-26T13:06:22.571Z,72.98
2022-08-26T13:08:53.875Z,72.75
2022-08-26T13:11:29.463Z,72.92
2022-08-26T13:14:10.591Z,72.63
2022-08-26T13:16:39.392Z,72.79
2022-08-26T13:19:10.570Z,72.92
2022-08-26T13:21:46.197Z,72.82
2022-08-26T13:24:19.051Z,72.84
2022-08-26T13:26:47.917Z,72.74
2022-08-26T13:29:16.541Z,72.72
2022-08-26T13:31:44.508Z,73.04
2022-08-26T13:34:18.282Z,72.90
2022-08-26T13:36:46.858Z,72.96
2022-08-26T13:39:14.313Z,72.74
2022-08-26T13:41:43.337Z,72.89
2022-08-26T13:44:10.826Z,72.82
2022-08-26T13:46:38.484Z,72.76
2022-08-26T13:49:07.412Z,72.72
2022-08-26T13:51:35.091Z,73.13
2022-08-26T13:54:02.614Z,72.80
2022-08-26T13:56:30.170Z,73.19
2022-08-26T13:58:58.189Z,73.19
2022-08-26T14:01:26.145Z,72.85
2022-08-26T14:03:53.661Z,72.98
2022-08-26T14:06:21.579Z,72.88
2022-08-26T14:08:49.541Z,72.87
2022-08-26T14:11:17.234Z,73.05
2022-08-26T14:13:44.737Z,73.08
2022-08-26T14:16:28.074Z,72.96
2022-08-26T14:18:55.653Z,72.78
2022-08-26T14:21:23.148Z,72.99
2022-08-26T14:23:50.635Z,73.13
2022-08-26T14:26:27.884Z,73.15
2022-08-26T14:29:01.170Z,73.22
2022-08-26T14:31:29.530Z,72.89
2022-08-26T14:33:58.433Z,73.03
2022-08-26T14:36:32.435Z,73.32
2022-08-26T14:39:01.922Z,72.87
2022-08-26T14:41:32.891Z,72.91
2022-08-26T14:44:02.498Z,72.85
2022-08-26T14:46:31.831Z,73.20
2022-08-26T14:49:01.833Z,73.32
2022-08-26T14:51:30.050Z,73.28
2022-08-26T14:54:12.854Z,73.27
2022-08-26T14:56:50.311Z,73.07
2022-08-26T14:59:25.447Z,73.40
2022-08-26T15:01:53.511Z,73.46
2022-08-26T15:04:21.246Z,73.44
2022-08-26T15:06:48.940Z,73.55
2022-08-26T15:09:16.411Z,73.31
2022-08-26T15:11:44.018Z,73.50
2022-08-26T15:14:19.455Z,73.43
2022-08-26T15:16:48.886Z,73.18
2022-08-26T15:19:16.846Z,73.08
2022-08-26T15:21:46.378Z,73.24
2022-08-26T15:24:14.817Z,73.44
2022-08-26T15:26:43.014Z,73.15
2022-08-26T15:29:10.537Z,73.39
2022-08-26T15:31:38.080Z,73.41
2022-08-26T15:34:12.102Z,73.31
2022-08-26T15:36:44.938Z,73.42
2022-08-26T15:39:12.524Z,73.49
2022-08-26T15:41:41.142Z,73.38
2022-08-26T15:44:10.882Z,73.20
2022-08-26T15:46:38.772Z,73.12
2022-08-26T15:49:07.053Z,73.00
2022-08-26T15:51:45.649Z,73.46
2022-08-26T15:54:14.150Z,73.56
2022-08-26T15:56:44.349Z,73.36
2022-08-26T15:59:12.085Z,73.23
2022-08-26T16:01:39.723Z,73.50
2022-08-26T16:04:09.072Z,73.07
2022-08-26T16:06:37.634Z,73.19
2022-08-26T16:09:06.551Z,73.15
2022-08-26T16:11:35.988Z,73.09
2022-08-26T16:14:04.678Z,73.55
2022-08-26T16:16:32.366Z,73.08
2022-08-26T16:19:02.277Z,73.34
2022-08-26T16:21:33.245Z,73.55
2022-08-26T16:24:00.741Z,73.42
2022-08-26T16:26:29.238Z,73.26
2022-08-26T16:28:56.739Z,73.52
2022-08-26T16:31:24.312Z,73.42
2022-08-26T16:33:51.789Z,73.26
2022-08-26T16:36:19.955Z,73.23
2022-08-26T16:38:50.267Z,73.23
2022-08-26T16:41:17.805Z,73.19
2022-08-26T16:43:45.527Z,73.25
2022-08-26T16:46:14.224Z,73.18
2022-08-26T16:48:45.453Z,73.80
2022-08-26T16:51:13.604Z,73.36
2022-08-26T16:53:41.159Z,73.65
2022-08-26T16:56:15.340Z,73.39
2022-08-26T16:58:44.142Z,73.30
2022-08-26T17:01:11.598Z,73.32
2022-08-26T17:03:39.108Z,73.23
2022-08-26T17:06:06.857Z,73.23
2022-08-26T17:08:36.403Z,73.58
2022-08-26T17:11:03.834Z,73.31
2022-08-26T17:13:35.496Z,73.62
2022-08-26T17:16:05.704Z,73.71
2022-08-26T17:18:33.588Z,73.55
2022-08-26T17:21:02.747Z,73.49
2022-08-26T17:23:30.334Z,73.85
2022-08-26T17:25:57.922Z,73.42
2022-08-26T17:28:25.378Z,73.87
2022-08-26T17:30:55.326Z,73.62
2022-08-26T17:33:24.588Z,73.90
2022-08-26T17:35:53.616Z,73.57
2022-08-26T17:38:21.237Z,73.74
2022-08-26T17:40:49.643Z,73.63
2022-08-26T17:43:17.811Z,73.91
2022-08-26T17:45:45.331Z,73.68
2022-08-26T17:48:13.043Z,74.04
2022-08-26T17:50:41.387Z,73.84
2022-08-26T17:53:08.994Z,74.10
2022-08-26T17:55:41.735Z,74.09
2022-08-26T17:58:14.651Z,73.76
2022-08-26T18:00:49.270Z,73.88
2022-08-26T18:03:16.778Z,74.06
2022-08-26T18:05:47.487Z,74.04
2022-08-26T18:08:17.865Z,73.74
2022-08-26T18:10:45.350Z,73.92
2022-08-26T18:13:14.813Z,74.19
2022-08-26T18:15:43.531Z,73.91
2022-08-26T18:18:12.019Z,74.21
2022-08-26T18:20:39.914Z,73.82
2022-08-26T18:23:07.836Z,73.97
2022-08-26T18:25:38.088Z,74.35
2022-08-26T18:28:06.470Z,74.08
2022-08-26T18:30:34.049Z,74.00
2022-08-26T18:33:01.615Z,73.92
2022-08-26T18:35:30.337Z,74.42
2022-08-26T18:37:58.260Z,73.88
2022-08-26T18:40:28.932Z,73.90
2022-08-26T18:42:56.381Z,74.03
2022-08-26T18:45:25.351Z,74.50
2022-08-26T18:47:52.739Z,74.08
2022-08-26T18:50:20.361Z,74.00
2022-08-26T18:52:47.800Z,74.06
2022-08-26T18:55:15.932Z,74.27
2022-08-26T18:57:43.371Z,74.57
2022-08-26T19:00:11.455Z,74.07
2022-08-26T19:02:41.480Z,74.35
2022-08-26T19:05:14.557Z,74.44
2022-08-26T19:07:42.636Z,74.06
2022-08-26T19:10:13.219Z,74.23
2022-08-26T19:12:41.184Z,74.47
2022-08-26T19:15:08.892Z,74.53
2022-08-26T19:17:36.400Z,74.58
2022-08-26T19:20:07.472Z,74.49
2022-08-26T19:22:34.939Z,74.25
2022-08-26T19:25:02.447Z,74.15
2022-08-26T19:27:30.148Z,74.22
2022-08-26T19:29:57.644Z,74.70
2022-08-26T19:32:25.346Z,74.23
2022-08-26T19:34:52.923Z,74.21
2022-08-26T19:37:21.718Z,74.50
2022-08-26T19:39:51.834Z,74.40
2022-08-26T19:42:19.414Z,74.28
2022-08-26T19:45:05.522Z,74.66
2022-08-26T19:47:33.376Z,74.54
2022-08-26T19:50:01.008Z,74.29
2022-08-26T19:52:30.355Z,74.31
2022-08-26T19:54:58.605Z,74.19
2022-08-26T19:57:26.097Z,74.36
2022-08-26T19:59:53.557Z,74.57
2022-08-26T20:02:21.058Z,74.60
2022-08-26T20:04:48.568Z,74.28
2022-08-26T20:07:18.869Z,74.55
2022-08-26T20:09:48.087Z,74.61
2022-08-26T20:12:15.609Z,74.36
2022-08-26T20:14:43.187Z,74.51
2022-08-26T20:17:10.866Z,74.48
2022-08-26T20:19:56.734Z,74.35
2022-08-26T20:22:24.246Z,74.51
2022-08-26T20:24:52.189Z,74.37
2022-08-26T20:27:19.813Z,74.24
2022-08-26T20:29:47.258Z,74.50
2022-08-26T20:32:14.756Z,74.14
2022-08-26T20:34:42.725Z,74.55
2022-08-26T20:37:13.129Z,74.29
2022-08-26T20:39:42.092Z,74.29
2022-08-26T20:42:19.791Z,74.32
2022-08-26T20:44:54.352Z,74.71
2022-08-26T20:47:23.201Z,74.56
2022-08-26T20:49:52.558Z,74.62
2022-08-26T20:52:20.273Z,74.41
2022-08-26T20:54:47.740Z,74.51
2022-08-26T20:57:15.255Z,74.49
2022-08-26T20:59:43.600Z,74.13
2022-08-26T21:02:11.126Z,74.26
2022-08-26T21:04:38.719Z,74.46
2022-08-26T21:07:08.637Z,74.67
2022-08-26T21:09:36.088Z,74.26
2022-08-26T21:12:04.615Z,74.49
2022-08-26T21:14:34.849Z,74.56
2022-08-26T21:17:02.639Z,74.57
2022-08-26T21:19:30.117Z,74.46
2022-08-26T21:22:00.047Z,74.11
2022-08-26T21:24:27.645Z,74.24
2022-08-26T21:26:55.097Z,74.16
2022-08-26T21:29:22.572Z,74.40
2022-08-26T21:31:50.204Z,74.44
2022-08-26T21:34:18.543Z,74.47
2022-08-26T21:36:46.552Z,74.22
2022-08-26T21:39:17.121Z,74.54
2022-08-26T21:41:44.709Z,74.46
2022-08-26T21:44:12.915Z,74.46
2022-08-26T21:46:40.564Z,74.51
2022-08-26T21:49:09.455Z,74.46
2022-08-26T21:51:41.762Z,74.19
2022-08-26T21:54:11.322Z,74.16
2022-08-26T21:56:44.287Z,74.32
2022-08-26T21:59:12.283Z,74.53
2022-08-26T22:01:39.852Z,74.47
2022-08-26T22:04:10.753Z,74.16
2022-08-26T22:06:45.966Z,74.24
2022-08-26T22:09:14.161Z,74.18
2022-08-26T22:11:41.710Z,74.12
2022-08-26T22:14:09.255Z,74.74
2022-08-26T22:16:37.034Z,74.30
2022-08-26T22:19:04.585Z,74.07
2022-08-26T22:21:32.223Z,74.44
2022-08-26T22:23:59.689Z,74.55
2022-08-26T22:26:28.789Z,74.32
2022-08-26T22:28:58.718Z,74.48
2022-08-26T22:31:38.116Z,74.15
2022-08-26T22:34:07.777Z,74.04
2022-08-26T22:36:35.998Z,74.26
2022-08-26T22:39:07.325Z,74.25
2022-08-26T22:41:38.082Z,74.47
2022-08-26T22:44:05.583Z,74.39
2022-08-26T22:46:34.863Z,74.25
2022-08-26T22:49:04.565Z,74.11
2022-08-26T22:51:32.203Z,74.18
2022-08-26T22:53:59.637Z,74.40
2022-08-26T22:56:27.041Z,74.08
2022-08-26T22:58:54.546Z,73.98
2022-08-26T23:01:22.065Z,74.37
2022-08-26T23:03:49.659Z,74.08
2022-08-26T23:06:17.145Z,74.42
2022-08-26T23:08:46.374Z,74.08
2022-08-26T23:11:13.882Z,74.44
2022-08-26T23:13:41.310Z,74.36
2022-08-26T23:16:10.225Z,74.33
2022-08-26T23:18:38.453Z,74.35
2022-08-26T23:21:06.239Z,73.70
2022-08-26T23:23:33.740Z,73.86
2022-08-26T23:26:05.550Z,73.82
2022-08-26T23:28:36.011Z,74.25
2022-08-26T23:31:03.809Z,74.01
2022-08-26T23:33:51.942Z,74.20
2022-08-26T23:36:22.831Z,74.14
2022-08-26T23:38:52.589Z,74.19
2022-08-26T23:41:24.460Z,73.95
2022-08-26T23:43:52.044Z,74.18
2022-08-26T23:46:19.725Z,73.99
2022-08-26T23:48:47.390Z,73.86
2022-08-26T23:51:33.525Z,74.02
2022-08-26T23:54:01.035Z,73.82
2022-08-26T23:56:29.149Z,73.93
2022-08-26T23:58:56.677Z,73.74
